Pagoda, Colorado
Current Conditions -  °F | °C
As of 4:53 PM on Wednesday 26 Nov 2014 (Local Time) from KCAG Reporting Station
Clear Clear  
Wind Chill: 33°   Ceiling: Unl
Heat Index: 39°   Visibility: 10mi
Dew Point: 28°   Wind: 9mph
Humidity: 65%   Direction: 220°SW
Pressure: 30.32"   Gusts: NA
Location:  40.3278°N, 107.546°W
Report Text: KCAG 262353Z AUTO 22008KT 10SM CLR 04/M02 A3032 RMK AO2 SLP283 T00391022 10106 20039 53010
Loading
Personal Weather Stations






























Interactive Weather Map New forecast layout! Learn more

10-Day Weather Forecast

Advertisements
Track Severe Weather on mobile